createdAt,value
2019-05-02T00:02:28.912Z,12.92
2019-05-02T00:04:59.821Z,12.80
2019-05-02T00:07:30.556Z,12.83
2019-05-02T00:10:00.984Z,12.72
2019-05-02T00:12:32.634Z,12.66
2019-05-02T00:15:06.335Z,12.58
2019-05-02T00:17:37.788Z,12.47
2019-05-02T00:20:08.826Z,12.56
2019-05-02T00:22:48.038Z,12.64
2019-05-02T00:25:17.195Z,12.70
2019-05-02T00:27:47.788Z,12.70
2019-05-02T00:30:18.486Z,12.44
2019-05-02T00:32:53.265Z,12.44
2019-05-02T00:35:21.521Z,12.50
2019-05-02T00:37:52.356Z,12.52
2019-05-02T00:40:25.854Z,12.60
2019-05-02T00:42:58.326Z,12.59
2019-05-02T00:45:28.549Z,12.53
2019-05-02T00:48:03.893Z,12.50
2019-05-02T00:50:40.543Z,12.56
2019-05-02T00:53:12.077Z,12.54
2019-05-02T00:55:45.005Z,12.66
2019-05-02T00:58:16.768Z,12.65
2019-05-02T01:01:05.819Z,12.64
2019-05-02T01:03:37.984Z,12.67
2019-05-02T01:06:13.748Z,12.60
2019-05-02T01:08:41.677Z,12.65
2019-05-02T01:11:12.134Z,12.51
2019-05-02T01:13:42.557Z,12.54
2019-05-02T01:16:15.180Z,12.47
2019-05-02T01:18:46.378Z,12.34
2019-05-02T01:21:17.009Z,12.21
2019-05-02T01:23:47.538Z,12.19
2019-05-02T01:26:18.582Z,11.97
2019-05-02T01:28:59.551Z,12.08
2019-05-02T01:31:54.680Z,12.04
2019-05-02T01:34:33.107Z,12.04
2019-05-02T01:37:05.235Z,12.02
2019-05-02T01:39:37.971Z,12.06
2019-05-02T01:42:08.000Z,11.99
2019-05-02T01:44:38.358Z,11.91
2019-05-02T01:47:08.886Z,11.94
2019-05-02T01:49:39.516Z,11.90
2019-05-02T01:52:10.524Z,11.98
2019-05-02T01:54:45.672Z,11.95
2019-05-02T01:57:13.560Z,11.90
2019-05-02T01:59:43.986Z,11.85
2019-05-02T02:02:15.101Z,11.79
2019-05-02T02:04:45.555Z,11.73
2019-05-02T02:07:19.969Z,11.63
2019-05-02T02:09:48.556Z,11.66
2019-05-02T02:12:19.187Z,11.73
2019-05-02T02:14:53.660Z,11.73
2019-05-02T02:17:24.751Z,11.80
2019-05-02T02:19:59.887Z,11.93
2019-05-02T02:22:39.076Z,11.90
2019-05-02T02:25:27.466Z,11.73
2019-05-02T02:27:59.630Z,11.80
2019-05-02T02:30:30.265Z,11.74
2019-05-02T02:33:07.743Z,11.74
2019-05-02T02:35:33.232Z,11.88
2019-05-02T02:38:03.693Z,12.04
2019-05-02T02:40:35.729Z,12.12
2019-05-02T02:43:30.257Z,12.14
2019-05-02T02:45:44.502Z,12.18
2019-05-02T02:48:15.027Z,12.12
2019-05-02T02:50:45.651Z,12.25
2019-05-02T02:53:23.903Z,12.27
2019-05-02T02:56:00.819Z,12.27
2019-05-02T02:58:22.666Z,12.40
2019-05-02T03:00:53.721Z,12.40
2019-05-02T03:03:27.922Z,12.39
2019-05-02T03:05:58.605Z,12.36
2019-05-02T03:08:31.567Z,12.37
2019-05-02T03:11:02.376Z,12.50
2019-05-02T03:13:51.357Z,12.43
2019-05-02T03:16:17.969Z,12.48
2019-05-02T03:18:49.760Z,12.40
2019-05-02T03:21:22.554Z,12.53
2019-05-02T03:24:02.272Z,12.53
2019-05-02T03:26:26.532Z,12.48
2019-05-02T03:28:58.369Z,12.33
2019-05-02T03:31:31.367Z,12.30
2019-05-02T03:34:02.044Z,12.32
2019-05-02T03:36:36.051Z,12.28
2019-05-02T03:39:13.519Z,12.33
2019-05-02T03:41:39.248Z,12.37
2019-05-02T03:44:11.903Z,12.43
2019-05-02T03:46:42.235Z,12.24
2019-05-02T03:49:13.087Z,12.52
2019-05-02T03:51:44.415Z,12.28
2019-05-02T03:54:15.358Z,12.41
2019-05-02T03:56:51.148Z,12.59
2019-05-02T03:59:18.980Z,12.49
2019-05-02T04:01:50.001Z,12.30
2019-05-02T04:04:21.108Z,12.30
2019-05-02T04:06:55.117Z,12.54
2019-05-02T04:09:31.971Z,12.40
2019-05-02T04:11:58.685Z,12.33
2019-05-02T04:14:38.181Z,12.40
2019-05-02T04:17:01.996Z,12.40
2019-05-02T04:19:34.776Z,12.41
2019-05-02T04:22:08.645Z,12.31
2019-05-02T04:24:37.159Z,12.14
2019-05-02T04:27:08.795Z,12.35
2019-05-02T04:29:39.368Z,12.22
2019-05-02T04:32:14.021Z,12.31
2019-05-02T04:34:48.801Z,12.40
2019-05-02T04:37:14.517Z,12.41
2019-05-02T04:39:44.935Z,12.25
2019-05-02T04:42:19.574Z,12.39
2019-05-02T04:45:09.432Z,12.34
2019-05-02T04:47:21.761Z,12.48
2019-05-02T04:49:52.215Z,12.38
2019-05-02T04:52:23.213Z,12.40
2019-05-02T04:55:00.819Z,12.22
2019-05-02T04:57:35.533Z,12.32
2019-05-02T05:00:06.159Z,12.36
2019-05-02T05:02:36.678Z,12.43
2019-05-02T05:05:05.090Z,12.47
2019-05-02T05:07:40.814Z,12.39
2019-05-02T05:10:08.448Z,12.43
2019-05-02T05:12:41.777Z,12.69
2019-05-02T05:15:15.229Z,12.53
2019-05-02T05:17:44.165Z,12.59
2019-05-02T05:20:15.956Z,12.52
2019-05-02T05:22:47.917Z,12.38
2019-05-02T05:25:35.000Z,12.37
2019-05-02T05:28:08.797Z,12.74
2019-05-02T05:30:45.354Z,13.09
2019-05-02T05:33:10.503Z,13.26
2019-05-02T05:35:43.214Z,13.16
2019-05-02T05:38:13.684Z,13.10
2019-05-02T05:40:47.914Z,13.06
2019-05-02T05:43:21.635Z,13.36
2019-05-02T05:45:56.641Z,13.51
2019-05-02T05:48:24.707Z,13.47
2019-05-02T05:50:55.342Z,13.54
2019-05-02T05:53:28.087Z,13.15
2019-05-02T05:56:02.382Z,13.17
2019-05-02T05:58:31.126Z,12.84
2019-05-02T06:01:02.263Z,12.78
2019-05-02T06:03:33.984Z,12.62
2019-05-02T06:06:05.469Z,12.82
2019-05-02T06:08:36.098Z,12.92
2019-05-02T06:11:06.628Z,13.07
2019-05-02T06:13:38.181Z,13.19
2019-05-02T06:16:10.581Z,13.29
2019-05-02T06:18:41.726Z,13.13
2019-05-02T06:21:13.725Z,13.24
2019-05-02T06:23:45.266Z,13.14
2019-05-02T06:26:16.089Z,13.18
2019-05-02T06:28:49.850Z,13.12
2019-05-02T06:31:20.488Z,13.15
2019-05-02T06:33:51.214Z,13.23
2019-05-02T06:36:21.753Z,13.20
2019-05-02T06:38:56.195Z,13.16
2019-05-02T06:41:24.441Z,13.45
2019-05-02T06:43:54.968Z,13.47
2019-05-02T06:46:27.531Z,13.40
2019-05-02T06:48:57.560Z,13.44
2019-05-02T06:51:28.529Z,13.48
2019-05-02T06:53:59.951Z,13.53
2019-05-02T06:56:30.479Z,13.55
2019-05-02T06:59:03.566Z,13.54
2019-05-02T07:01:34.681Z,13.59
2019-05-02T07:04:05.236Z,13.78
2019-05-02T07:06:50.162Z,13.98
2019-05-02T07:09:09.018Z,13.84
2019-05-02T07:11:41.051Z,13.87
2019-05-02T07:14:13.524Z,13.88
2019-05-02T07:16:49.593Z,13.84
2019-05-02T07:19:27.369Z,13.94
2019-05-02T07:22:03.808Z,14.11
2019-05-02T07:24:32.658Z,13.95
2019-05-02T07:27:03.446Z,14.01
2019-05-02T07:29:33.973Z,14.33
2019-05-02T07:32:06.733Z,14.34
2019-05-02T07:34:36.979Z,14.25
2019-05-02T07:37:08.457Z,14.55
2019-05-02T07:39:40.870Z,14.47
2019-05-02T07:42:11.732Z,14.33
2019-05-02T07:44:42.465Z,14.32
2019-05-02T07:47:13.286Z,14.60
2019-05-02T07:49:44.034Z,14.54
2019-05-02T07:52:17.817Z,14.54
2019-05-02T07:54:50.621Z,14.22
2019-05-02T07:57:25.196Z,14.10
2019-05-02T07:59:55.077Z,14.20
2019-05-02T08:02:26.432Z,14.30
2019-05-02T08:04:56.939Z,14.35
2019-05-02T08:07:34.336Z,14.24
2019-05-02T08:09:59.423Z,15.00
2019-05-02T08:12:29.953Z,15.29
2019-05-02T08:15:00.449Z,15.33
2019-05-02T08:17:31.110Z,15.24
2019-05-02T08:20:04.654Z,15.04
2019-05-02T08:22:34.221Z,14.84
2019-05-02T08:25:10.570Z,14.92
2019-05-02T08:27:53.194Z,15.10
2019-05-02T08:30:28.020Z,14.93
2019-05-02T08:33:01.295Z,15.13
2019-05-02T08:35:31.740Z,15.45
2019-05-02T08:38:02.377Z,15.67
2019-05-02T08:40:33.005Z,15.25
2019-05-02T08:43:09.444Z,15.20
2019-05-02T08:45:38.211Z,15.28
2019-05-02T08:48:09.414Z,15.04
2019-05-02T08:50:40.141Z,15.01
2019-05-02T08:53:14.244Z,14.89
2019-05-02T08:55:45.380Z,14.79
2019-05-02T08:58:15.891Z,15.05
2019-05-02T09:00:47.509Z,15.43
2019-05-02T09:03:18.307Z,15.60
2019-05-02T09:05:49.045Z,15.73
2019-05-02T09:08:19.773Z,15.76
2019-05-02T09:10:50.509Z,15.89
2019-05-02T09:13:25.972Z,15.50
2019-05-02T09:15:54.282Z,15.66
2019-05-02T09:18:30.041Z,15.71
2019-05-02T09:20:57.437Z,15.21
2019-05-02T09:23:35.001Z,14.79
2019-05-02T09:26:02.518Z,14.77
2019-05-02T09:28:33.323Z,14.84
2019-05-02T09:31:06.604Z,14.73
2019-05-02T09:33:36.861Z,14.63
2019-05-02T09:36:11.812Z,14.71
2019-05-02T09:38:42.494Z,14.67
2019-05-02T09:41:16.929Z,14.53
2019-05-02T09:43:45.603Z,14.84
2019-05-02T09:46:16.683Z,14.82
2019-05-02T09:48:47.375Z,14.46
2019-05-02T09:51:18.419Z,14.42
2019-05-02T09:53:49.048Z,14.44
2019-05-02T09:56:21.457Z,14.27
2019-05-02T09:58:55.267Z,14.34
2019-05-02T10:01:29.133Z,14.07
2019-05-02T10:03:59.763Z,14.35
2019-05-02T10:06:32.134Z,14.17
2019-05-02T10:09:02.788Z,14.18
2019-05-02T10:11:35.559Z,14.58
2019-05-02T10:14:11.747Z,14.79
2019-05-02T10:16:42.627Z,14.89
2019-05-02T10:19:16.087Z,14.86
2019-05-02T10:21:46.965Z,14.67
2019-05-02T10:24:22.061Z,14.64
2019-05-02T10:26:55.142Z,14.46
2019-05-02T10:29:28.323Z,14.16
2019-05-02T10:31:57.183Z,14.46
2019-05-02T10:34:27.813Z,14.60
2019-05-02T10:36:59.290Z,14.49
2019-05-02T10:39:33.962Z,14.70
2019-05-02T10:42:03.290Z,14.50
2019-05-02T10:44:36.544Z,14.48
2019-05-02T10:47:06.199Z,14.55
2019-05-02T10:49:42.861Z,14.61
2019-05-02T10:52:15.362Z,14.80
2019-05-02T10:54:46.809Z,14.80
2019-05-02T10:57:17.833Z,15.04
2019-05-02T10:59:48.253Z,15.09
2019-05-02T11:02:26.773Z,15.23
2019-05-02T11:04:59.240Z,15.36
2019-05-02T11:07:29.974Z,15.25
2019-05-02T11:10:03.109Z,15.18
2019-05-02T11:12:44.506Z,14.72
2019-05-02T11:15:26.786Z,14.81
2019-05-02T11:17:57.282Z,15.36
2019-05-02T11:20:28.190Z,15.20
2019-05-02T11:22:58.745Z,15.28
2019-05-02T11:25:29.242Z,15.71
2019-05-02T11:28:02.919Z,15.41
2019-05-02T11:30:32.090Z,14.97
2019-05-02T11:33:03.148Z,15.07
2019-05-02T11:35:34.254Z,14.99
2019-05-02T11:38:05.050Z,15.03
2019-05-02T11:40:35.824Z,14.55
2019-05-02T11:43:07.586Z,14.74
2019-05-02T11:45:38.114Z,14.18
2019-05-02T11:48:11.030Z,14.20
2019-05-02T11:50:42.147Z,14.17
2019-05-02T11:53:23.301Z,14.14
2019-05-02T11:55:46.628Z,14.15
2019-05-02T11:58:17.305Z,14.36
2019-05-02T12:00:49.577Z,14.55
2019-05-02T12:03:22.800Z,14.42
2019-05-02T12:05:53.572Z,14.20
2019-05-02T12:08:24.613Z,13.84
2019-05-02T12:10:55.170Z,13.71
2019-05-02T12:13:25.699Z,14.03
2019-05-02T12:15:56.390Z,14.08
2019-05-02T12:18:27.063Z,14.05
2019-05-02T12:20:57.693Z,14.13
2019-05-02T12:23:28.139Z,14.24
2019-05-02T12:25:58.853Z,14.63
2019-05-02T12:28:29.571Z,14.76
2019-05-02T12:31:02.757Z,15.00
2019-05-02T12:33:34.020Z,15.02
2019-05-02T12:36:11.994Z,15.13
2019-05-02T12:38:42.556Z,15.25
2019-05-02T12:41:20.348Z,14.99
2019-05-02T12:43:45.453Z,15.26
2019-05-02T12:46:16.193Z,15.49
2019-05-02T12:48:46.919Z,15.50
2019-05-02T12:51:17.729Z,15.28
2019-05-02T12:53:48.393Z,15.19
2019-05-02T12:56:19.016Z,15.05
2019-05-02T12:58:52.875Z,14.63
2019-05-02T13:01:22.335Z,14.58
2019-05-02T13:04:04.435Z,14.61
2019-05-02T13:06:37.071Z,15.16
2019-05-02T13:09:09.087Z,14.80
2019-05-02T13:11:44.616Z,14.90
2019-05-02T13:14:19.194Z,14.87
2019-05-02T13:16:47.113Z,14.81
2019-05-02T13:19:18.143Z,15.12
2019-05-02T13:22:05.845Z,15.19
2019-05-02T13:24:39.446Z,15.08
2019-05-02T13:27:15.124Z,14.88
2019-05-02T13:29:46.062Z,14.67
2019-05-02T13:32:18.969Z,14.74
2019-05-02T13:34:54.121Z,14.64
2019-05-02T13:37:24.820Z,14.79
2019-05-02T13:40:03.008Z,14.76
2019-05-02T13:42:34.377Z,14.89
2019-05-02T13:45:13.777Z,14.65
2019-05-02T13:47:44.545Z,14.74
2019-05-02T13:50:15.694Z,14.81
2019-05-02T13:52:53.245Z,14.80
2019-05-02T13:55:21.147Z,14.97
2019-05-02T13:57:53.026Z,15.17
2019-05-02T14:00:31.897Z,15.25
2019-05-02T14:03:04.994Z,15.51
2019-05-02T14:05:37.085Z,15.26
2019-05-02T14:08:27.448Z,15.31
2019-05-02T14:11:01.927Z,15.24
2019-05-02T14:13:32.735Z,15.30
2019-05-02T14:16:03.474Z,15.24
2019-05-02T14:18:34.002Z,15.20
2019-05-02T14:21:04.832Z,15.04
2019-05-02T14:23:35.261Z,15.26
2019-05-02T14:26:06.064Z,15.27
2019-05-02T14:28:36.731Z,15.30
2019-05-02T14:31:07.458Z,15.39
2019-05-02T14:33:39.932Z,15.38
2019-05-02T14:36:11.690Z,15.17
2019-05-02T14:38:42.217Z,14.88
2019-05-02T14:41:14.801Z,15.20
2019-05-02T14:43:54.203Z,15.25
2019-05-02T14:46:34.153Z,14.94
2019-05-02T14:48:58.771Z,15.07
2019-05-02T14:51:29.503Z,15.17
2019-05-02T14:54:03.560Z,15.10
2019-05-02T14:56:37.493Z,15.13
2019-05-02T14:59:09.245Z,15.31
2019-05-02T15:01:39.374Z,15.43
2019-05-02T15:04:09.823Z,15.54
2019-05-02T15:06:45.349Z,15.63
2019-05-02T15:09:16.778Z,15.71
2019-05-02T15:12:02.792Z,15.63
2019-05-02T15:14:34.260Z,15.58
2019-05-02T15:17:05.174Z,15.56
2019-05-02T15:19:35.801Z,15.61
2019-05-02T15:22:06.362Z,15.51
2019-05-02T15:24:38.059Z,15.41
2019-05-02T15:27:17.328Z,15.17
2019-05-02T15:29:41.976Z,15.26
2019-05-02T15:32:17.379Z,15.28
2019-05-02T15:34:55.692Z,14.81
2019-05-02T15:37:26.834Z,14.60
2019-05-02T15:42:29.701Z,14.50
2019-05-02T15:45:02.175Z,14.51
2019-05-02T15:47:32.429Z,14.54
2019-05-02T15:50:03.139Z,14.69
2019-05-02T15:52:36.765Z,14.88
2019-05-02T15:55:07.466Z,14.88
2019-05-02T15:57:42.811Z,14.92
2019-05-02T16:00:15.531Z,14.74
2019-05-02T16:02:44.209Z,14.61
2019-05-02T16:05:14.938Z,14.33
2019-05-02T16:07:46.748Z,14.09
2019-05-02T16:10:17.562Z,14.06
2019-05-02T16:12:49.779Z,14.01
2019-05-02T16:15:24.762Z,13.85
2019-05-02T16:17:52.356Z,13.84
2019-05-02T16:20:40.587Z,13.93
2019-05-02T16:23:07.801Z,13.71
2019-05-02T16:25:38.235Z,13.39
2019-05-02T16:28:08.628Z,13.40
2019-05-02T16:30:44.111Z,13.45
2019-05-02T16:33:17.408Z,13.47
2019-05-02T16:35:46.246Z,13.39
2019-05-02T16:38:17.058Z,13.21
2019-05-02T16:40:47.597Z,13.21
2019-05-02T16:43:18.051Z,13.07
2019-05-02T16:45:49.503Z,13.08
2019-05-02T16:48:22.217Z,12.98
2019-05-02T16:50:53.833Z,12.98
2019-05-02T16:53:26.284Z,12.97
2019-05-02T16:55:58.372Z,12.98
2019-05-02T16:58:29.381Z,12.78
2019-05-02T17:01:01.588Z,12.90
2019-05-02T17:03:32.111Z,13.02
2019-05-02T17:06:02.846Z,12.87
2019-05-02T17:08:57.428Z,12.94
2019-05-02T17:11:35.608Z,12.94
2019-05-02T17:14:07.028Z,12.90
2019-05-02T17:16:36.805Z,12.76
2019-05-02T17:19:07.230Z,12.74
2019-05-02T17:21:52.479Z,12.84
2019-05-02T17:24:10.336Z,12.69
2019-05-02T17:26:42.282Z,12.45
2019-05-02T17:29:16.439Z,12.46
2019-05-02T17:31:44.990Z,12.37
2019-05-02T17:34:15.736Z,12.18
2019-05-02T17:36:46.457Z,12.07
2019-05-02T17:39:18.879Z,12.01
2019-05-02T17:41:49.461Z,11.88
2019-05-02T17:44:22.233Z,11.84
2019-05-02T17:46:58.130Z,11.88
2019-05-02T17:49:31.922Z,11.82
2019-05-02T17:52:05.558Z,11.74
2019-05-02T17:54:34.700Z,11.64
2019-05-02T17:57:05.537Z,11.60
2019-05-02T17:59:37.555Z,11.54
2019-05-02T18:02:12.393Z,11.49
2019-05-02T18:04:41.929Z,11.47
2019-05-02T18:07:12.563Z,11.39
2019-05-02T18:09:43.297Z,11.32
2019-05-02T18:12:16.215Z,11.29
2019-05-02T18:14:46.299Z,11.24
2019-05-02T18:17:18.867Z,11.20
2019-05-02T18:19:49.509Z,11.16
2019-05-02T18:22:24.142Z,11.15
2019-05-02T18:24:52.650Z,11.12
2019-05-02T18:27:24.675Z,11.10
2019-05-02T18:29:55.408Z,11.04
2019-05-02T18:32:26.221Z,11.00
2019-05-02T18:35:01.300Z,11.07
2019-05-02T18:37:29.040Z,11.02
2019-05-02T18:39:59.673Z,10.98
2019-05-02T18:42:31.691Z,10.98
2019-05-02T18:45:03.049Z,11.03
2019-05-02T18:47:33.614Z,10.91
2019-05-02T18:50:06.221Z,10.91
2019-05-02T18:52:42.985Z,10.96
2019-05-02T18:55:09.840Z,10.93
2019-05-02T18:57:42.324Z,10.91
2019-05-02T19:00:13.591Z,10.91
2019-05-02T19:02:44.599Z,11.08
2019-05-02T19:05:19.250Z,11.05
2019-05-02T19:07:52.678Z,11.05
2019-05-02T19:10:20.249Z,11.23
2019-05-02T19:12:51.701Z,11.14
2019-05-02T19:15:22.025Z,11.18
2019-05-02T19:17:53.011Z,11.14
2019-05-02T19:20:25.130Z,11.25
2019-05-02T19:22:57.002Z,11.13
2019-05-02T19:25:27.719Z,11.01
2019-05-02T19:28:00.058Z,10.89
2019-05-02T19:30:35.229Z,10.86
2019-05-02T19:33:07.839Z,10.76
2019-05-02T19:35:43.187Z,10.87
2019-05-02T19:38:11.837Z,10.88
2019-05-02T19:40:42.846Z,10.90
2019-05-02T19:43:14.802Z,10.98
2019-05-02T19:45:50.274Z,10.94
2019-05-02T19:48:17.836Z,10.95
2019-05-02T19:50:48.482Z,10.99
2019-05-02T19:53:19.678Z,11.09
2019-05-02T19:55:51.869Z,10.99
2019-05-02T19:58:22.304Z,10.87
2019-05-02T20:00:53.856Z,10.91
2019-05-02T20:03:26.181Z,10.95
2019-05-02T20:06:01.587Z,10.89
2019-05-02T20:08:29.542Z,10.79
2019-05-02T20:11:01.941Z,10.73
2019-05-02T20:13:32.835Z,10.61
2019-05-02T20:16:06.352Z,10.67
2019-05-02T20:18:42.408Z,10.69
2019-05-02T20:21:27.590Z,10.61
2019-05-02T20:23:55.646Z,10.48
2019-05-02T20:26:26.077Z,10.47
2019-05-02T20:28:56.703Z,10.37
2019-05-02T20:31:27.334Z,10.28
2019-05-02T20:33:57.865Z,10.37
2019-05-02T20:36:28.492Z,10.58
2019-05-02T20:38:59.228Z,10.48
2019-05-02T20:41:29.755Z,10.37
2019-05-02T20:44:02.520Z,10.40
2019-05-02T20:46:32.863Z,10.35
2019-05-02T20:49:03.394Z,10.30
2019-05-02T20:51:34.399Z,10.26
2019-05-02T20:54:05.171Z,10.18
2019-05-02T20:56:35.695Z,10.21
2019-05-02T20:59:07.348Z,10.22
2019-05-02T21:01:38.670Z,10.28
2019-05-02T21:04:09.120Z,10.23
2019-05-02T21:07:01.895Z,10.10
2019-05-02T21:09:35.228Z,10.04
2019-05-02T21:12:07.738Z,10.15
2019-05-02T21:14:38.264Z,9.96
2019-05-02T21:17:08.895Z,9.80
2019-05-02T21:19:39.423Z,9.85
2019-05-02T21:22:14.458Z,9.80
2019-05-02T21:24:44.886Z,9.91
2019-05-02T21:27:15.721Z,9.95
2019-05-02T21:29:47.480Z,10.02
2019-05-02T21:32:18.008Z,10.05
2019-05-02T21:34:48.537Z,10.00
2019-05-02T21:37:19.164Z,10.08
2019-05-02T21:39:49.593Z,9.95
2019-05-02T21:42:20.121Z,10.03
2019-05-02T21:44:51.781Z,9.98
2019-05-02T21:47:23.329Z,9.93
2019-05-02T21:49:55.394Z,10.14
2019-05-02T21:52:34.624Z,10.24
2019-05-02T21:55:12.868Z,10.10
2019-05-02T21:57:44.335Z,10.03
2019-05-02T22:00:19.077Z,10.04
2019-05-02T22:02:52.334Z,10.02
2019-05-02T22:05:22.829Z,10.00
2019-05-02T22:07:53.460Z,10.12
2019-05-02T22:10:24.094Z,10.35
2019-05-02T22:12:54.824Z,10.34
2019-05-02T22:15:25.252Z,10.44
2019-05-02T22:17:56.570Z,10.41
2019-05-02T22:20:29.277Z,10.55
2019-05-02T22:23:00.113Z,10.48
2019-05-02T22:25:32.639Z,10.58
2019-05-02T22:28:02.808Z,10.34
2019-05-02T22:30:33.412Z,10.24
2019-05-02T22:33:04.175Z,10.30
2019-05-02T22:35:34.907Z,10.29
2019-05-02T22:38:11.624Z,10.21
2019-05-02T22:40:43.951Z,10.31
2019-05-02T22:43:14.657Z,10.19
2019-05-02T22:45:45.212Z,10.50
2019-05-02T22:48:15.739Z,10.45
2019-05-02T22:50:46.953Z,10.47
2019-05-02T22:53:17.596Z,10.49
2019-05-02T22:55:48.145Z,10.59
2019-05-02T22:58:18.777Z,10.56
2019-05-02T23:00:49.815Z,10.54
2019-05-02T23:03:21.538Z,10.55
2019-05-02T23:05:53.371Z,10.58
2019-05-02T23:08:24.268Z,10.59
2019-05-02T23:10:55.001Z,10.64
2019-05-02T23:13:25.637Z,10.88
2019-05-02T23:15:56.367Z,10.91
2019-05-02T23:18:27.200Z,10.98
2019-05-02T23:20:57.728Z,11.02
2019-05-02T23:23:28.268Z,10.89
2019-05-02T23:26:15.888Z,10.78
2019-05-02T23:28:56.968Z,10.88
2019-05-02T23:31:27.799Z,10.94
2019-05-02T23:33:58.227Z,10.72
2019-05-02T23:36:29.480Z,10.82
2019-05-02T23:39:01.828Z,10.74
2019-05-02T23:41:34.008Z,10.61
2019-05-02T23:44:05.603Z,10.72
2019-05-02T23:46:36.192Z,10.62
2019-05-02T23:49:06.620Z,10.73
2019-05-02T23:51:37.424Z,10.71
2019-05-02T23:54:07.981Z,10.66
2019-05-02T23:56:39.738Z,10.61
2019-05-02T23:59:11.875Z,10.64
